createdAt,value
2023-04-10T00:04:01.566Z,5.90
2023-04-10T00:09:04.210Z,5.90
2023-04-10T00:14:06.571Z,5.90
2023-04-10T00:19:08.901Z,6.00
2023-04-10T00:24:11.198Z,6.00
2023-04-10T00:29:13.549Z,6.20
2023-04-10T00:34:16.278Z,5.90
2023-04-10T00:39:19.083Z,5.90
2023-04-10T00:44:21.438Z,5.90
2023-04-10T00:49:23.949Z,5.90
2023-04-10T00:54:27.100Z,6.30
2023-04-10T00:59:29.735Z,6.30
2023-04-10T01:04:33.915Z,6.20
2023-04-10T01:09:36.880Z,6.30
2023-04-10T01:15:03.860Z,6.30
2023-04-10T01:20:14.591Z,6.40
2023-04-10T01:25:48.098Z,6.40
2023-04-10T01:30:53.939Z,6.30
2023-04-10T01:35:59.811Z,6.10
2023-04-10T01:41:03.982Z,5.90
2023-04-10T01:46:07.516Z,5.70
2023-04-10T01:51:11.214Z,5.60
2023-04-10T01:56:14.621Z,5.50
2023-04-10T02:01:29.778Z,5.30
2023-04-10T02:06:49.521Z,5.20
2023-04-10T02:11:55.074Z,5.10
2023-04-10T02:16:57.699Z,5.00
2023-04-10T02:22:01.029Z,4.90
2023-04-10T02:27:03.610Z,4.90
2023-04-10T02:32:06.772Z,4.80
2023-04-10T02:37:09.112Z,4.70
2023-04-10T02:42:12.043Z,4.70
2023-04-10T02:47:16.669Z,4.60
2023-04-10T02:52:21.638Z,4.50
2023-04-10T02:57:24.066Z,4.40
2023-04-10T03:02:27.249Z,4.30
2023-04-10T03:07:32.340Z,4.30
2023-04-10T03:12:35.376Z,4.20
2023-04-10T03:17:37.716Z,4.10
2023-04-10T03:22:41.717Z,4.40
2023-04-10T03:27:47.253Z,4.00
2023-04-10T03:32:49.653Z,4.00
2023-04-10T03:37:52.217Z,4.00
2023-04-10T03:42:56.047Z,4.20
2023-04-10T03:47:59.452Z,4.10
2023-04-10T03:53:04.869Z,4.10
2023-04-10T03:58:08.303Z,4.10
2023-04-10T04:03:12.079Z,4.10
2023-04-10T04:08:36.327Z,4.00
2023-04-10T04:13:58.918Z,4.10
2023-04-10T04:19:24.443Z,4.10
2023-04-10T04:24:46.069Z,4.30
2023-04-10T04:29:58.526Z,4.30
2023-04-10T04:35:12.360Z,4.50
2023-04-10T04:40:37.911Z,4.50
2023-04-10T04:46:06.951Z,4.50
2023-04-10T04:51:44.610Z,4.60
2023-04-10T04:57:13.131Z,4.70
2023-04-10T05:02:39.990Z,4.70
2023-04-10T05:08:05.233Z,4.80
2023-04-10T05:13:26.273Z,5.00
2023-04-10T05:18:47.593Z,4.90
2023-04-10T05:24:14.756Z,4.90
2023-04-10T05:29:36.051Z,4.90
2023-04-10T05:35:01.564Z,5.00
2023-04-10T05:40:10.049Z,5.00
2023-04-10T05:45:31.494Z,5.10
2023-04-10T05:50:35.780Z,5.40
2023-04-10T05:56:04.256Z,5.30
2023-04-10T06:01:32.682Z,5.60
2023-04-10T06:06:38.343Z,5.70
2023-04-10T06:11:41.151Z,5.80
2023-04-10T06:16:43.961Z,5.90
2023-04-10T06:21:46.808Z,6.10
2023-04-10T06:26:49.230Z,6.10
2023-04-10T06:31:51.876Z,6.60
2023-04-10T06:36:55.184Z,6.70
2023-04-10T06:41:57.793Z,6.90
2023-04-10T06:47:18.901Z,6.90
2023-04-10T06:52:21.513Z,7.20
2023-04-10T06:57:23.810Z,7.30
2023-04-10T07:02:26.504Z,7.60
2023-04-10T07:07:29.355Z,7.80
2023-04-10T07:12:31.673Z,7.90
2023-04-10T07:17:34.369Z,7.80
2023-04-10T07:22:36.775Z,7.80
2023-04-10T07:27:39.116Z,8.30
2023-04-10T07:32:42.372Z,8.20
2023-04-10T07:37:45.015Z,8.00
2023-04-10T07:42:47.635Z,8.00
2023-04-10T07:47:50.075Z,8.30
2023-04-10T07:52:52.429Z,8.50
2023-04-10T07:57:54.911Z,8.50
2023-04-10T08:02:57.530Z,8.70
2023-04-10T08:08:00.563Z,8.90
2023-04-10T08:13:03.101Z,9.00
2023-04-10T08:18:05.480Z,9.10
2023-04-10T08:23:19.617Z,9.40
2023-04-10T08:28:22.534Z,9.50
2023-04-10T08:33:24.853Z,9.50
2023-04-10T08:38:27.767Z,9.20
2023-04-10T08:43:30.808Z,9.70
2023-04-10T08:48:42.069Z,9.70
2023-04-10T08:53:45.955Z,10.00
2023-04-10T08:58:51.607Z,9.30
2023-04-10T09:03:54.238Z,9.80
2023-04-10T09:08:56.871Z,10.00
2023-04-10T09:13:59.193Z,10.00
2023-04-10T09:19:03.892Z,10.40
2023-04-10T09:24:08.546Z,10.60
2023-04-10T09:29:12.386Z,10.80
2023-04-10T09:34:16.100Z,10.50
2023-04-10T09:39:18.908Z,10.90
2023-04-10T09:44:33.255Z,10.60
2023-04-10T09:49:48.609Z,11.10
2023-04-10T09:54:51.516Z,11.50
2023-04-10T09:59:59.521Z,11.20
2023-04-10T10:05:05.934Z,10.90
2023-04-10T10:10:11.763Z,10.90
2023-04-10T10:15:40.904Z,11.00
2023-04-10T10:20:45.683Z,11.30
2023-04-10T10:25:49.356Z,11.60
2023-04-10T10:30:52.603Z,11.80
2023-04-10T10:36:00.362Z,12.50
2023-04-10T10:41:09.269Z,12.80
2023-04-10T10:46:37.497Z,13.00
2023-04-10T10:51:43.452Z,12.60
2023-04-10T10:56:45.789Z,13.00
2023-04-10T11:02:16.914Z,13.20
2023-04-10T11:07:19.322Z,13.20
2023-04-10T11:12:25.885Z,13.00
2023-04-10T11:17:49.228Z,13.00
2023-04-10T11:23:11.885Z,12.70
2023-04-10T11:28:40.660Z,13.10
2023-04-10T11:33:43.585Z,13.10
2023-04-10T11:38:58.773Z,13.10
2023-04-10T11:44:02.566Z,13.50
2023-04-10T11:49:06.666Z,13.90
2023-04-10T11:54:14.447Z,13.70
2023-04-10T11:59:19.882Z,13.80
2023-04-10T12:04:24.355Z,13.80
2023-04-10T12:09:27.618Z,13.90
2023-04-10T12:14:32.567Z,14.20
2023-04-10T12:19:35.665Z,14.10
2023-04-10T12:25:04.744Z,14.50
2023-04-10T12:30:08.454Z,14.70
2023-04-10T12:35:10.992Z,14.60
2023-04-10T12:40:14.079Z,14.60
2023-04-10T12:45:16.440Z,15.00
2023-04-10T12:50:20.965Z,15.00
2023-04-10T12:55:23.374Z,15.40
2023-04-10T13:00:26.363Z,15.30
2023-04-10T13:05:28.938Z,15.40
2023-04-10T13:10:31.275Z,15.40
2023-04-10T13:15:37.062Z,15.50
2023-04-10T13:20:41.019Z,15.60
2023-04-10T13:25:43.596Z,15.60
2023-04-10T13:30:45.988Z,15.40
2023-04-10T13:35:48.455Z,15.40
2023-04-10T13:40:50.870Z,15.40
2023-04-10T13:45:53.239Z,15.40
2023-04-10T13:50:55.651Z,15.60
2023-04-10T13:55:58.170Z,15.40
2023-04-10T14:01:01.555Z,15.50
2023-04-10T14:06:04.166Z,15.70
2023-04-10T14:11:07.071Z,15.60
2023-04-10T14:16:09.599Z,15.70
2023-04-10T14:21:12.031Z,15.60
2023-04-10T14:26:14.498Z,15.70
2023-04-10T14:31:18.347Z,15.40
2023-04-10T14:36:20.750Z,15.60
2023-04-10T14:41:23.146Z,15.60
2023-04-10T14:46:25.662Z,15.60
2023-04-10T14:51:28.078Z,15.60
2023-04-10T14:56:30.591Z,15.50
2023-04-10T15:01:33.823Z,15.40
2023-04-10T15:06:36.301Z,15.20
2023-04-10T15:11:38.687Z,15.00
2023-04-10T15:16:41.931Z,15.20
2023-04-10T15:21:44.445Z,14.90
2023-04-10T15:26:47.142Z,14.70
2023-04-10T15:31:51.526Z,14.70
2023-04-10T15:36:53.929Z,14.60
2023-04-10T15:41:56.779Z,14.60
2023-04-10T15:46:59.221Z,14.50
2023-04-10T15:52:01.655Z,14.40
2023-04-10T15:57:04.218Z,14.60
2023-04-10T16:02:06.824Z,14.40
2023-04-10T16:07:09.298Z,14.40
2023-04-10T16:12:12.737Z,14.20
2023-04-10T16:17:15.133Z,14.20
2023-04-10T16:22:17.531Z,14.10
2023-04-10T16:27:19.911Z,14.10
2023-04-10T16:32:22.717Z,13.90
2023-04-10T16:37:25.230Z,13.60
2023-04-10T16:42:27.680Z,13.80
2023-04-10T16:47:31.481Z,13.70
2023-04-10T16:52:34.506Z,13.50
2023-04-10T16:57:36.901Z,13.40
2023-04-10T17:02:39.429Z,13.30
2023-04-10T17:07:43.672Z,13.10
2023-04-10T17:12:47.454Z,13.00
2023-04-10T17:17:52.632Z,12.90
2023-04-10T17:22:55.017Z,12.70
2023-04-10T17:27:57.840Z,12.50
2023-04-10T17:33:01.260Z,12.30
2023-04-10T17:38:03.686Z,12.20
2023-04-10T17:43:06.203Z,11.90
2023-04-10T17:48:09.012Z,11.80
2023-04-10T17:53:11.567Z,11.70
2023-04-10T17:58:14.041Z,11.40
2023-04-10T18:03:16.582Z,11.20
2023-04-10T18:08:19.023Z,11.00
2023-04-10T18:13:21.376Z,10.80
2023-04-10T18:18:23.874Z,10.70
2023-04-10T18:23:28.339Z,10.30
2023-04-10T18:28:31.208Z,10.20
2023-04-10T18:33:33.995Z,10.10
2023-04-10T18:38:37.520Z,10.10
2023-04-10T18:43:40.077Z,9.80
2023-04-10T18:48:43.277Z,9.70
2023-04-10T18:53:45.715Z,9.60
2023-04-10T18:58:49.948Z,9.50
2023-04-10T19:03:54.958Z,9.40
2023-04-10T19:08:57.736Z,9.30
2023-04-10T19:14:00.267Z,9.10
2023-04-10T19:19:02.755Z,9.00
2023-04-10T19:24:05.363Z,8.80
2023-04-10T19:29:08.931Z,8.70
2023-04-10T19:34:12.513Z,8.50
2023-04-10T19:39:15.190Z,8.40
2023-04-10T19:44:17.656Z,8.40
2023-04-10T19:49:20.092Z,8.20
2023-04-10T19:54:22.680Z,8.00
2023-04-10T19:59:25.182Z,7.90
2023-04-10T20:04:27.774Z,7.80
2023-04-10T20:09:30.263Z,7.70
2023-04-10T20:14:32.693Z,7.60
2023-04-10T20:19:35.134Z,7.60
2023-04-10T20:24:37.584Z,7.50
2023-04-10T20:29:39.974Z,7.40
2023-04-10T20:34:42.450Z,7.50
2023-04-10T20:39:44.830Z,7.30
2023-04-10T20:44:47.170Z,7.20
2023-04-10T20:49:49.491Z,7.20
2023-04-10T20:54:51.960Z,7.10
2023-04-10T20:59:54.251Z,7.00
2023-04-10T21:04:56.759Z,7.00
2023-04-10T21:09:59.485Z,6.80
2023-04-10T21:15:01.859Z,6.90
2023-04-10T21:20:04.366Z,6.90
2023-04-10T21:25:07.086Z,6.70
2023-04-10T21:30:09.656Z,6.60
2023-04-10T21:35:12.298Z,6.50
2023-04-10T21:40:14.625Z,6.40
2023-04-10T21:45:17.199Z,6.50
2023-04-10T21:50:19.566Z,6.40
2023-04-10T21:55:21.941Z,6.40
2023-04-10T22:00:24.301Z,6.30
2023-04-10T22:05:27.623Z,6.30
2023-04-10T22:10:29.944Z,6.10
2023-04-10T22:15:32.327Z,6.00
2023-04-10T22:20:34.658Z,6.00
2023-04-10T22:25:38.719Z,6.00
2023-04-10T22:30:41.293Z,5.90
2023-04-10T22:35:44.138Z,5.90
2023-04-10T22:40:46.478Z,6.00
2023-04-10T22:45:48.855Z,5.80
2023-04-10T22:50:51.235Z,5.80
2023-04-10T22:55:53.524Z,5.80
2023-04-10T23:00:56.002Z,5.80
2023-04-10T23:05:58.359Z,5.80
2023-04-10T23:11:00.743Z,5.70
2023-04-10T23:16:03.186Z,5.70
2023-04-10T23:21:07.500Z,5.70
2023-04-10T23:26:11.547Z,5.60
2023-04-10T23:31:13.979Z,5.50
2023-04-10T23:36:16.948Z,5.50
2023-04-10T23:41:19.285Z,5.40
2023-04-10T23:46:21.713Z,5.40
2023-04-10T23:51:24.069Z,5.50
2023-04-10T23:56:29.426Z,5.40
